createdAt,value
2019-01-03T00:00:42.354Z,61.08
2019-01-03T00:03:32.298Z,61.51
2019-01-03T00:06:19.383Z,61.23
2019-01-03T00:09:12.232Z,61.31
2019-01-03T00:12:00.788Z,61.10
2019-01-03T00:14:49.470Z,61.26
2019-01-03T00:17:46.023Z,61.21
2019-01-03T00:20:34.161Z,61.91
2019-01-03T00:23:23.082Z,61.04
2019-01-03T00:26:22.205Z,60.35
2019-01-03T00:29:12.050Z,61.34
2019-01-03T00:32:00.612Z,61.57
2019-01-03T00:34:49.232Z,60.41
2019-01-03T00:37:47.090Z,59.86
2019-01-03T00:40:41.598Z,60.10
2019-01-03T00:43:34.477Z,60.99
2019-01-03T00:46:27.045Z,60.41
2019-01-03T00:49:28.927Z,60.82
2019-01-03T00:52:08.360Z,60.74
2019-01-03T00:55:10.022Z,61.49
2019-01-03T00:57:59.451Z,61.14
2019-01-03T01:00:39.989Z,60.93
2019-01-03T01:03:28.612Z,61.59
2019-01-03T01:06:27.467Z,61.16
2019-01-03T01:09:26.664Z,61.24
2019-01-03T01:12:28.568Z,62.10
2019-01-03T01:15:36.762Z,62.86
2019-01-03T01:18:29.495Z,62.09
2019-01-03T01:21:18.154Z,62.17
2019-01-03T01:24:20.545Z,62.35
2019-01-03T01:27:09.354Z,62.51
2019-01-03T01:29:58.133Z,62.75
2019-01-03T01:33:06.257Z,62.94
2019-01-03T01:36:07.061Z,62.91
2019-01-03T01:39:09.311Z,62.88
2019-01-03T01:41:59.104Z,63.38
2019-01-03T01:44:51.699Z,63.09
2019-01-03T01:47:41.464Z,63.10
2019-01-03T01:50:28.367Z,63.46
2019-01-03T01:53:17.121Z,64.32
2019-01-03T01:56:16.089Z,63.06
2019-01-03T01:59:05.870Z,63.59
2019-01-03T02:01:46.356Z,63.64
2019-01-03T02:04:35.055Z,63.28
2019-01-03T02:07:27.942Z,63.33
2019-01-03T02:10:17.783Z,63.98
2019-01-03T02:13:13.502Z,64.11
2019-01-03T02:16:06.042Z,63.93
2019-01-03T02:18:53.434Z,63.43
2019-01-03T02:21:49.090Z,64.04
2019-01-03T02:24:35.464Z,64.51
2019-01-03T02:27:24.306Z,64.34
2019-01-03T02:30:13.004Z,63.99
2019-01-03T02:33:21.050Z,64.47
2019-01-03T02:36:20.235Z,64.82
2019-01-03T02:39:19.468Z,64.64
2019-01-03T02:42:07.821Z,64.79
2019-01-03T02:44:59.443Z,65.08
2019-01-03T02:47:54.141Z,65.18
2019-01-03T02:50:42.778Z,65.22
2019-01-03T02:53:31.524Z,65.48
2019-01-03T02:56:20.216Z,66.17
2019-01-03T02:59:13.169Z,66.32
2019-01-03T03:02:06.081Z,65.58
2019-01-03T03:05:00.807Z,65.25
2019-01-03T03:07:49.433Z,65.25
2019-01-03T03:10:39.229Z,64.65
2019-01-03T03:13:32.173Z,65.32
2019-01-03T03:16:21.104Z,65.64
2019-01-03T03:19:10.073Z,65.57
2019-01-03T03:22:11.893Z,65.85
2019-01-03T03:25:10.569Z,65.95
2019-01-03T03:28:12.743Z,66.07
2019-01-03T03:31:14.660Z,65.82
2019-01-03T03:34:03.244Z,64.94
2019-01-03T03:36:50.069Z,65.47
2019-01-03T03:39:52.095Z,65.54
2019-01-03T03:42:39.142Z,65.45
2019-01-03T03:45:35.001Z,65.29
2019-01-03T03:48:24.845Z,65.79
2019-01-03T03:51:17.833Z,65.96
2019-01-03T03:54:13.110Z,65.99
2019-01-03T03:57:03.959Z,66.66
2019-01-03T04:00:03.230Z,65.48
2019-01-03T04:02:52.060Z,65.34
2019-01-03T04:05:41.860Z,65.78
2019-01-03T04:08:31.670Z,65.91
2019-01-03T04:11:27.273Z,66.21
2019-01-03T04:14:23.392Z,66.46
2019-01-03T04:17:28.609Z,66.48
2019-01-03T04:20:11.146Z,67.03
2019-01-03T04:22:59.588Z,67.80
2019-01-03T04:25:47.945Z,67.29
2019-01-03T04:28:36.329Z,67.30
2019-01-03T04:31:29.491Z,66.72
2019-01-03T04:34:18.303Z,66.92
2019-01-03T04:37:08.301Z,67.01
2019-01-03T04:39:56.825Z,67.33
2019-01-03T04:42:46.677Z,67.89
2019-01-03T04:45:51.604Z,67.33
2019-01-03T04:48:53.500Z,67.17
2019-01-03T04:51:52.107Z,67.90
2019-01-03T04:54:41.108Z,67.06
2019-01-03T04:57:30.967Z,67.67
2019-01-03T05:00:20.613Z,67.77
2019-01-03T05:03:28.804Z,67.48
2019-01-03T05:06:17.539Z,67.34
2019-01-03T05:09:08.907Z,67.29
2019-01-03T05:12:05.051Z,67.00
2019-01-03T05:14:53.877Z,66.30
2019-01-03T05:18:01.912Z,66.90
2019-01-03T05:20:50.629Z,66.43
2019-01-03T05:23:40.437Z,66.73
2019-01-03T05:26:29.357Z,67.07
2019-01-03T05:29:30.461Z,67.53
2019-01-03T05:32:32.440Z,67.04
2019-01-03T05:35:22.494Z,66.74
2019-01-03T05:38:11.367Z,67.03
2019-01-03T05:41:01.173Z,66.23
2019-01-03T05:44:03.084Z,66.26
2019-01-03T05:46:51.552Z,66.56
2019-01-03T05:49:44.531Z,67.11
2019-01-03T05:52:33.283Z,66.17
2019-01-03T05:55:38.488Z,65.53
2019-01-03T05:58:41.545Z,64.95
2019-01-03T06:01:32.260Z,65.87
2019-01-03T06:04:22.110Z,65.41
2019-01-03T06:07:09.229Z,65.54
2019-01-03T06:09:57.884Z,65.19
2019-01-03T06:12:46.356Z,65.30
2019-01-03T06:15:48.334Z,65.05
2019-01-03T06:18:44.030Z,65.41
2019-01-03T06:21:33.830Z,66.06
2019-01-03T06:24:22.528Z,66.35
2019-01-03T06:27:11.205Z,66.76
2019-01-03T06:30:00.979Z,67.14
2019-01-03T06:33:03.098Z,67.01
2019-01-03T06:35:59.672Z,67.43
2019-01-03T06:38:58.877Z,67.20
2019-01-03T06:41:47.370Z,67.71
2019-01-03T06:44:39.584Z,67.25
2019-01-03T06:47:47.976Z,67.88
2019-01-03T06:50:36.389Z,67.52
2019-01-03T06:53:20.153Z,66.90
2019-01-03T06:56:08.606Z,66.80
2019-01-03T06:58:58.448Z,66.87
2019-01-03T07:01:47.615Z,66.95
2019-01-03T07:04:30.488Z,66.94
2019-01-03T07:07:32.225Z,66.31
2019-01-03T07:10:20.596Z,66.55
2019-01-03T07:13:28.875Z,66.32
2019-01-03T07:16:17.661Z,66.82
2019-01-03T07:19:12.856Z,66.43
2019-01-03T07:22:05.425Z,66.86
2019-01-03T07:25:13.411Z,66.81
2019-01-03T07:28:06.007Z,67.00
2019-01-03T07:30:55.871Z,67.11
2019-01-03T07:33:45.646Z,67.50
2019-01-03T07:36:34.511Z,67.35
2019-01-03T07:39:24.793Z,66.16
2019-01-03T07:42:14.081Z,66.70
2019-01-03T07:45:12.903Z,66.09
2019-01-03T07:48:05.748Z,66.04
2019-01-03T07:50:54.481Z,66.17
2019-01-03T07:53:43.011Z,66.74
2019-01-03T07:56:46.124Z,66.54
2019-01-03T07:59:37.744Z,65.67
2019-01-03T08:02:31.412Z,65.32
2019-01-03T08:05:20.008Z,65.29
2019-01-03T08:08:17.939Z,65.29
2019-01-03T08:11:14.647Z,64.80
2019-01-03T08:14:24.477Z,64.72
2019-01-03T08:17:18.915Z,65.02
2019-01-03T08:20:21.301Z,65.05
2019-01-03T08:23:09.747Z,65.38
2019-01-03T08:25:52.678Z,65.73
2019-01-03T08:28:51.809Z,65.15
2019-01-03T08:31:45.408Z,65.00
2019-01-03T08:34:27.626Z,64.82
2019-01-03T08:37:25.408Z,66.38
2019-01-03T08:40:14.119Z,65.35
2019-01-03T08:43:27.107Z,64.56
2019-01-03T08:46:13.970Z,64.81
2019-01-03T08:49:02.420Z,64.34
2019-01-03T08:52:05.550Z,63.93
2019-01-03T08:55:01.552Z,64.70
2019-01-03T08:57:50.619Z,65.01
2019-01-03T09:00:39.083Z,64.75
2019-01-03T09:03:27.738Z,64.87
2019-01-03T09:06:23.592Z,63.77
2019-01-03T09:09:22.490Z,63.82
2019-01-03T09:12:23.977Z,63.91
2019-01-03T09:15:12.691Z,63.00
2019-01-03T09:18:10.329Z,62.15
2019-01-03T09:21:00.185Z,62.24
2019-01-03T09:24:05.252Z,62.22
2019-01-03T09:26:53.531Z,62.15
2019-01-03T09:29:40.797Z,62.10
2019-01-03T09:32:33.054Z,62.64
2019-01-03T09:35:27.824Z,62.14
2019-01-03T09:38:08.510Z,61.51
2019-01-03T09:40:49.968Z,60.95
2019-01-03T09:43:38.669Z,61.67
2019-01-03T09:46:09.455Z,61.39
2019-01-03T09:48:40.301Z,62.79
2019-01-03T09:51:11.067Z,63.19
2019-01-03T09:53:41.946Z,63.18
2019-01-03T09:56:12.881Z,62.37
2019-01-03T09:58:43.678Z,62.64
2019-01-03T10:01:14.518Z,62.55
2019-01-03T10:03:45.387Z,61.47
2019-01-03T10:06:16.238Z,61.97
2019-01-03T10:08:47.107Z,61.78
2019-01-03T10:11:17.891Z,61.90
2019-01-03T10:13:48.743Z,61.46
2019-01-03T10:16:19.546Z,61.17
2019-01-03T10:18:50.351Z,60.34
2019-01-03T10:21:21.148Z,59.90
2019-01-03T10:23:51.968Z,59.18
2019-01-03T10:26:22.767Z,58.24
2019-01-03T10:28:53.558Z,57.71
2019-01-03T10:31:24.365Z,58.71
2019-01-03T10:33:55.206Z,59.64
2019-01-03T10:36:27.483Z,57.95
2019-01-03T10:38:58.467Z,59.66
2019-01-03T10:41:29.253Z,59.04
2019-01-03T10:44:00.034Z,58.71
2019-01-03T10:46:32.184Z,58.08
2019-01-03T10:49:03.030Z,57.46
2019-01-03T10:51:33.819Z,55.64
2019-01-03T10:54:04.650Z,54.36
2019-01-03T10:56:35.441Z,54.94
2019-01-03T10:59:06.233Z,54.18
2019-01-03T11:01:37.081Z,56.36
2019-01-03T11:04:08.015Z,56.43
2019-01-03T11:06:38.791Z,57.20
2019-01-03T11:09:09.568Z,57.77
2019-01-03T11:11:40.398Z,55.70
2019-01-03T11:14:11.190Z,55.54
2019-01-03T11:16:41.968Z,54.96
2019-01-03T11:19:12.736Z,54.77
2019-01-03T11:21:43.511Z,53.33
2019-01-03T11:24:14.421Z,52.28
2019-01-03T11:26:45.185Z,53.34
2019-01-03T11:29:15.984Z,53.62
2019-01-03T11:31:46.854Z,55.11
2019-01-03T11:34:17.650Z,53.26
2019-01-03T11:36:48.413Z,52.61
2019-01-03T11:39:19.188Z,52.76
2019-01-03T11:41:50.003Z,52.85
2019-01-03T11:44:20.782Z,52.47
2019-01-03T11:46:53.112Z,52.09
2019-01-03T11:49:24.101Z,52.93
2019-01-03T11:51:54.883Z,53.00
2019-01-03T11:54:25.697Z,52.67
2019-01-03T11:56:56.466Z,53.39
2019-01-03T11:59:27.318Z,53.35
2019-01-03T12:01:58.106Z,54.66
2019-01-03T12:04:29.133Z,54.29
2019-01-03T12:06:59.916Z,54.54
2019-01-03T12:09:30.703Z,54.44
2019-01-03T12:12:01.677Z,54.29
2019-01-03T12:14:32.455Z,54.86
2019-01-03T12:17:03.236Z,55.58
2019-01-03T12:19:34.017Z,53.05
2019-01-03T12:22:04.821Z,52.62
2019-01-03T12:24:35.609Z,49.74
2019-01-03T12:27:06.560Z,46.89
2019-01-03T12:29:37.334Z,46.95
2019-01-03T12:32:08.169Z,45.62
2019-01-03T12:34:38.950Z,45.07
2019-01-03T12:37:09.730Z,47.63
2019-01-03T12:39:41.607Z,41.33
2019-01-03T12:42:12.376Z,37.88
2019-01-03T12:44:44.228Z,32.89
2019-01-03T12:47:15.032Z,28.54
2019-01-03T12:49:45.886Z,27.83
2019-01-03T12:52:16.660Z,30.83
2019-01-03T12:54:47.450Z,32.85
2019-01-03T12:57:18.200Z,26.97
2019-01-03T12:59:48.976Z,29.55
2019-01-03T13:02:19.736Z,32.50
2019-01-03T13:04:50.521Z,26.96
2019-01-03T13:07:21.281Z,22.14
2019-01-03T13:09:52.093Z,21.97
2019-01-03T13:12:22.875Z,27.53
2019-01-03T13:14:53.749Z,27.18
2019-01-03T13:17:24.570Z,28.24
2019-01-03T13:19:55.360Z,27.54
2019-01-03T13:22:26.210Z,26.30
2019-01-03T13:24:56.998Z,26.25
2019-01-03T13:27:27.787Z,31.90
2019-01-03T13:29:58.653Z,31.57
2019-01-03T13:32:29.457Z,28.04
2019-01-03T13:35:00.518Z,34.54
2019-01-03T13:37:31.322Z,34.69
2019-01-03T13:40:02.128Z,35.33
2019-01-03T13:42:32.895Z,29.73
2019-01-03T13:45:03.704Z,28.15
2019-01-03T13:47:34.487Z,31.51
2019-01-03T13:50:06.285Z,31.72
2019-01-03T13:52:37.072Z,36.87
2019-01-03T13:55:07.899Z,34.72
2019-01-03T13:57:39.717Z,40.75
2019-01-03T14:00:11.356Z,42.46
2019-01-03T14:02:42.114Z,41.62
2019-01-03T14:05:12.884Z,42.40
2019-01-03T14:07:43.648Z,40.75
2019-01-03T14:10:14.460Z,40.01
2019-01-03T14:12:45.243Z,41.25
2019-01-03T14:15:16.069Z,42.55
2019-01-03T14:17:46.847Z,45.42
2019-01-03T14:20:17.633Z,50.20
2019-01-03T14:22:49.450Z,48.86
2019-01-03T14:25:20.256Z,49.92
2019-01-03T14:27:51.144Z,49.98
2019-01-03T14:30:21.920Z,47.25
2019-01-03T14:32:52.684Z,45.30
2019-01-03T14:35:23.460Z,43.32
2019-01-03T14:37:54.325Z,45.85
2019-01-03T14:40:25.362Z,47.84
2019-01-03T14:42:56.113Z,49.90
2019-01-03T14:45:26.901Z,50.32
2019-01-03T14:47:57.676Z,52.35
2019-01-03T14:50:28.494Z,53.16
2019-01-03T14:52:59.253Z,53.88
2019-01-03T14:55:30.057Z,54.77
2019-01-03T14:58:00.850Z,56.08
2019-01-03T15:00:31.717Z,56.53
2019-01-03T15:03:02.516Z,57.04
2019-01-03T15:05:33.316Z,57.27
2019-01-03T15:08:04.248Z,58.82
2019-01-03T15:10:35.027Z,59.28
2019-01-03T15:13:05.861Z,58.96
2019-01-03T15:15:36.957Z,59.16
2019-01-03T15:18:07.724Z,59.86
2019-01-03T15:20:38.512Z,60.74
2019-01-03T15:23:09.290Z,61.02
2019-01-03T15:25:40.086Z,61.06
2019-01-03T15:28:10.886Z,61.68
2019-01-03T15:30:41.683Z,61.17
2019-01-03T15:33:12.461Z,61.75
2019-01-03T15:35:43.347Z,62.14
2019-01-03T15:38:14.118Z,61.98
2019-01-03T15:40:44.902Z,62.53
2019-01-03T15:43:15.666Z,62.63
2019-01-03T15:45:46.654Z,62.57
2019-01-03T15:48:17.416Z,62.53
2019-01-03T15:50:48.244Z,62.62
2019-01-03T15:53:19.022Z,62.96
2019-01-03T15:55:49.807Z,62.87
2019-01-03T15:58:20.647Z,63.05
2019-01-03T16:00:51.465Z,63.45
2019-01-03T16:03:22.249Z,64.17
2019-01-03T16:05:53.323Z,63.86
2019-01-03T16:08:24.112Z,63.77
2019-01-03T16:10:54.940Z,63.42
2019-01-03T16:13:25.742Z,63.42
2019-01-03T16:15:56.514Z,63.79
2019-01-03T16:18:27.298Z,63.31
2019-01-03T16:20:58.112Z,63.48
2019-01-03T16:23:28.879Z,63.39
2019-01-03T16:25:59.701Z,63.62
2019-01-03T16:28:30.484Z,63.64
2019-01-03T16:31:01.308Z,63.87
2019-01-03T16:33:32.087Z,64.05
2019-01-03T16:36:02.892Z,64.25
2019-01-03T16:38:33.664Z,63.70
2019-01-03T16:41:04.476Z,63.95
2019-01-03T16:43:35.258Z,63.81
2019-01-03T16:46:06.139Z,64.19
2019-01-03T16:48:36.952Z,64.14
2019-01-03T16:51:07.747Z,63.91
2019-01-03T16:53:38.543Z,63.91
2019-01-03T16:56:09.554Z,64.95
2019-01-03T16:58:40.401Z,64.68
2019-01-03T17:01:11.259Z,64.39
2019-01-03T17:03:42.045Z,64.34
2019-01-03T17:06:12.944Z,64.67
2019-01-03T17:08:43.746Z,64.73
2019-01-03T17:11:14.534Z,65.16
2019-01-03T17:13:45.341Z,65.45
2019-01-03T17:16:16.117Z,65.17
2019-01-03T17:18:46.979Z,65.36
2019-01-03T17:21:17.833Z,65.28
2019-01-03T17:23:48.789Z,65.61
2019-01-03T17:26:19.569Z,65.58
2019-01-03T17:28:50.388Z,65.71
2019-01-03T17:31:21.218Z,65.89
2019-01-03T17:33:52.074Z,66.74
2019-01-03T17:36:22.876Z,66.89
2019-01-03T17:38:53.654Z,67.29
2019-01-03T17:41:24.518Z,67.50
2019-01-03T17:43:55.295Z,67.78
2019-01-03T17:46:26.093Z,67.84
2019-01-03T17:48:57.049Z,67.83
2019-01-03T17:51:27.858Z,67.77
2019-01-03T17:53:58.653Z,67.76
2019-01-03T17:56:29.448Z,68.07
2019-01-03T17:59:00.222Z,68.38
2019-01-03T18:01:31.090Z,68.33
2019-01-03T18:04:01.871Z,68.21
2019-01-03T18:06:32.671Z,68.02
2019-01-03T18:09:03.557Z,67.71
2019-01-03T18:11:34.481Z,68.32
2019-01-03T18:14:05.363Z,68.32
2019-01-03T18:16:37.223Z,68.63
2019-01-03T18:19:08.088Z,68.96
2019-01-03T18:21:38.918Z,69.10
2019-01-03T18:24:09.673Z,69.13
2019-01-03T18:26:40.476Z,69.13
2019-01-03T18:29:11.310Z,69.23
2019-01-03T18:31:42.139Z,69.52
2019-01-03T18:34:12.954Z,69.53
2019-01-03T18:36:43.837Z,69.52
2019-01-03T18:39:14.611Z,69.37
2019-01-03T18:41:45.431Z,69.38
2019-01-03T18:44:16.370Z,69.22
2019-01-03T18:46:47.180Z,69.00
2019-01-03T18:49:17.969Z,69.41
2019-01-03T18:51:48.850Z,69.77
2019-01-03T18:54:19.639Z,69.79
2019-01-03T18:56:50.590Z,70.29
2019-01-03T18:59:21.399Z,70.38
2019-01-03T19:01:52.217Z,70.40
2019-01-03T19:04:23.084Z,70.47
2019-01-03T19:06:54.093Z,70.63
2019-01-03T19:09:25.012Z,70.75
2019-01-03T19:11:55.796Z,70.74
2019-01-03T19:14:26.608Z,71.16
2019-01-03T19:16:57.422Z,70.77
2019-01-03T19:19:28.224Z,70.68
2019-01-03T19:21:59.210Z,70.62
2019-01-03T19:24:30.007Z,70.96
2019-01-03T19:27:00.788Z,71.15
2019-01-03T19:29:31.578Z,70.98
2019-01-03T19:32:02.387Z,70.75
2019-01-03T19:34:33.181Z,70.05
2019-01-03T19:37:04.273Z,70.15
2019-01-03T19:39:35.052Z,69.86
2019-01-03T19:42:05.909Z,69.81
2019-01-03T19:44:36.699Z,69.72
2019-01-03T19:47:07.516Z,69.99
2019-01-03T19:49:38.312Z,70.22
2019-01-03T19:52:09.119Z,69.80
2019-01-03T19:54:39.891Z,69.61
2019-01-03T19:57:10.775Z,69.78
2019-01-03T19:59:41.568Z,69.21
2019-01-03T20:02:12.414Z,69.05
2019-01-03T20:04:43.206Z,69.62
2019-01-03T20:07:14.058Z,70.11
2019-01-03T20:09:44.965Z,70.03
2019-01-03T20:12:15.845Z,70.03
2019-01-03T20:14:46.655Z,69.60
2019-01-03T20:17:17.461Z,69.83
2019-01-03T20:19:48.237Z,70.10
2019-01-03T20:22:19.050Z,70.37
2019-01-03T20:24:49.849Z,70.55
2019-01-03T20:27:20.826Z,70.79
2019-01-03T20:29:51.646Z,70.79
2019-01-03T20:32:22.450Z,70.98
2019-01-03T20:34:53.248Z,71.02
2019-01-03T20:37:24.059Z,70.51
2019-01-03T20:39:54.865Z,70.75
2019-01-03T20:42:25.747Z,71.06
2019-01-03T20:44:56.556Z,70.79
2019-01-03T20:47:27.438Z,71.15
2019-01-03T20:49:58.232Z,71.08
2019-01-03T20:52:29.125Z,71.80
2019-01-03T20:55:00.875Z,72.08
2019-01-03T20:57:31.680Z,71.89
2019-01-03T21:00:02.480Z,72.12
2019-01-03T21:02:33.283Z,71.37
2019-01-03T21:05:04.111Z,71.37
2019-01-03T21:07:35.910Z,71.93
2019-01-03T21:10:08.609Z,71.86
2019-01-03T21:12:39.455Z,71.92
2019-01-03T21:15:13.086Z,72.65
2019-01-03T21:17:43.899Z,72.75
2019-01-03T21:20:15.788Z,73.04
2019-01-03T21:22:46.767Z,73.41
2019-01-03T21:25:17.549Z,73.17
2019-01-03T21:27:48.357Z,73.47
2019-01-03T21:30:19.883Z,73.66
2019-01-03T21:32:50.713Z,73.57
2019-01-03T21:35:21.556Z,73.60
2019-01-03T21:37:52.474Z,73.57
2019-01-03T21:40:23.351Z,73.71
2019-01-03T21:42:54.164Z,73.93
2019-01-03T21:45:24.985Z,73.98
2019-01-03T21:47:55.845Z,73.60
2019-01-03T21:50:26.675Z,73.55
2019-01-03T21:52:57.535Z,73.66
2019-01-03T21:55:28.350Z,74.33
2019-01-03T21:57:59.183Z,73.53
2019-01-03T22:00:29.990Z,72.95
2019-01-03T22:03:00.846Z,72.75
2019-01-03T22:05:31.627Z,73.56
2019-01-03T22:08:02.436Z,73.72
2019-01-03T22:10:33.322Z,74.03
2019-01-03T22:13:04.125Z,74.30
2019-01-03T22:15:34.945Z,74.76
2019-01-03T22:18:05.783Z,74.68
2019-01-03T22:20:36.585Z,74.53
2019-01-03T22:23:07.431Z,74.36
2019-01-03T22:25:38.230Z,74.52
2019-01-03T22:28:09.056Z,74.36
2019-01-03T22:30:40.196Z,74.25
2019-01-03T22:33:11.026Z,74.11
2019-01-03T22:35:41.830Z,74.44
2019-01-03T22:38:12.673Z,74.54
2019-01-03T22:40:43.493Z,74.72
2019-01-03T22:43:14.408Z,74.33
2019-01-03T22:45:45.224Z,74.26
2019-01-03T22:48:16.092Z,74.24
2019-01-03T22:50:46.891Z,74.41
2019-01-03T22:53:17.900Z,74.22
2019-01-03T22:55:48.742Z,74.46
2019-01-03T22:58:19.542Z,74.66
2019-01-03T23:00:52.393Z,74.76
2019-01-03T23:03:23.213Z,74.36
2019-01-03T23:05:54.043Z,73.96
2019-01-03T23:08:24.856Z,74.41
2019-01-03T23:10:55.725Z,74.59
2019-01-03T23:13:26.550Z,74.64
2019-01-03T23:15:57.388Z,74.56
2019-01-03T23:18:31.534Z,74.95
2019-01-03T23:21:00.718Z,75.15
2019-01-03T23:23:31.526Z,75.02
2019-01-03T23:26:07.137Z,75.10
2019-01-03T23:28:37.977Z,74.89
2019-01-03T23:31:08.877Z,74.83
2019-01-03T23:33:39.706Z,74.57
2019-01-03T23:36:10.516Z,74.76
2019-01-03T23:38:41.889Z,74.96
2019-01-03T23:41:12.673Z,74.75
2019-01-03T23:43:43.650Z,74.42
2019-01-03T23:46:14.464Z,73.95
2019-01-03T23:48:45.352Z,73.84
2019-01-03T23:51:16.170Z,73.86
2019-01-03T23:53:46.972Z,74.31
2019-01-03T23:56:17.808Z,74.14
2019-01-03T23:58:48.599Z,74.41
